sensor_id;sensor_type;location;lat;lon;timestamp;P1;durP1;ratioP1;P2;durP2;ratioP2
15425;SDS011;7812;50.072;7.036;2024-03-08T00:00:18;9.83;;;7.47;;
15425;SDS011;7812;50.072;7.036;2024-03-08T00:02:45;10.93;;;8.10;;
15425;SDS011;7812;50.072;7.036;2024-03-08T00:05:11;10.50;;;8.03;;
15425;SDS011;7812;50.072;7.036;2024-03-08T00:07:38;11.63;;;8.33;;
15425;SDS011;7812;50.072;7.036;2024-03-08T00:10:05;10.33;;;7.70;;
15425;SDS011;7812;50.072;7.036;2024-03-08T00:12:32;12.00;;;8.23;;
15425;SDS011;7812;50.072;7.036;2024-03-08T00:14:58;9.73;;;7.53;;
15425;SDS011;7812;50.072;7.036;2024-03-08T00:17:23;9.83;;;7.80;;
15425;SDS011;7812;50.072;7.036;2024-03-08T00:19:50;10.07;;;8.17;;
15425;SDS011;7812;50.072;7.036;2024-03-08T00:22:16;10.27;;;8.03;;
15425;SDS011;7812;50.072;7.036;2024-03-08T00:24:42;10.33;;;7.93;;
15425;SDS011;7812;50.072;7.036;2024-03-08T00:27:08;10.43;;;7.80;;
15425;SDS011;7812;50.072;7.036;2024-03-08T00:29:35;9.83;;;7.50;;
15425;SDS011;7812;50.072;7.036;2024-03-08T00:32:00;9.67;;;7.50;;
15425;SDS011;7812;50.072;7.036;2024-03-08T00:34:26;10.63;;;7.17;;
15425;SDS011;7812;50.072;7.036;2024-03-08T00:36:52;11.93;;;8.10;;
15425;SDS011;7812;50.072;7.036;2024-03-08T00:39:18;11.53;;;7.97;;
15425;SDS011;7812;50.072;7.036;2024-03-08T00:41:47;12.30;;;8.73;;
15425;SDS011;7812;50.072;7.036;2024-03-08T00:44:12;10.57;;;8.20;;
15425;SDS011;7812;50.072;7.036;2024-03-08T00:46:38;10.50;;;7.77;;
15425;SDS011;7812;50.072;7.036;2024-03-08T00:49:04;10.90;;;7.90;;
15425;SDS011;7812;50.072;7.036;2024-03-08T00:51:29;11.03;;;8.17;;
15425;SDS011;7812;50.072;7.036;2024-03-08T00:53:55;11.77;;;8.00;;
15425;SDS011;7812;50.072;7.036;2024-03-08T00:56:21;10.60;;;7.63;;
15425;SDS011;7812;50.072;7.036;2024-03-08T00:58:46;11.80;;;7.63;;
15425;SDS011;7812;50.072;7.036;2024-03-08T01:01:15;10.70;;;7.70;;
15425;SDS011;7812;50.072;7.036;2024-03-08T01:03:43;9.77;;;7.70;;
15425;SDS011;7812;50.072;7.036;2024-03-08T01:06:09;10.50;;;7.83;;
15425;SDS011;7812;50.072;7.036;2024-03-08T01:08:35;12.37;;;8.80;;
15425;SDS011;7812;50.072;7.036;2024-03-08T01:11:03;12.87;;;9.27;;
15425;SDS011;7812;50.072;7.036;2024-03-08T01:13:30;11.47;;;8.80;;
15425;SDS011;7812;50.072;7.036;2024-03-08T01:15:55;11.97;;;9.63;;
15425;SDS011;7812;50.072;7.036;2024-03-08T01:18:21;12.20;;;8.60;;
15425;SDS011;7812;50.072;7.036;2024-03-08T01:20:47;11.47;;;8.73;;
15425;SDS011;7812;50.072;7.036;2024-03-08T01:23:13;11.63;;;8.57;;
15425;SDS011;7812;50.072;7.036;2024-03-08T01:25:39;13.07;;;9.03;;
15425;SDS011;7812;50.072;7.036;2024-03-08T01:28:05;11.70;;;8.37;;
15425;SDS011;7812;50.072;7.036;2024-03-08T01:30:31;11.10;;;7.97;;
15425;SDS011;7812;50.072;7.036;2024-03-08T01:32:59;17.50;;;9.50;;
15425;SDS011;7812;50.072;7.036;2024-03-08T01:35:25;11.63;;;8.30;;
15425;SDS011;7812;50.072;7.036;2024-03-08T01:37:52;12.63;;;9.33;;
15425;SDS011;7812;50.072;7.036;2024-03-08T01:40:18;10.43;;;8.17;;
15425;SDS011;7812;50.072;7.036;2024-03-08T01:42:44;10.13;;;7.90;;
15425;SDS011;7812;50.072;7.036;2024-03-08T01:45:10;9.20;;;7.73;;
15425;SDS011;7812;50.072;7.036;2024-03-08T01:47:35;10.50;;;7.97;;
15425;SDS011;7812;50.072;7.036;2024-03-08T01:50:02;9.93;;;8.10;;
15425;SDS011;7812;50.072;7.036;2024-03-08T01:52:31;9.83;;;8.03;;
15425;SDS011;7812;50.072;7.036;2024-03-08T01:55:00;10.37;;;8.17;;
15425;SDS011;7812;50.072;7.036;2024-03-08T01:57:28;10.30;;;8.07;;
15425;SDS011;7812;50.072;7.036;2024-03-08T01:59:56;11.30;;;7.53;;
15425;SDS011;7812;50.072;7.036;2024-03-08T02:02:22;8.50;;;7.20;;
15425;SDS011;7812;50.072;7.036;2024-03-08T02:04:48;10.27;;;8.03;;
15425;SDS011;7812;50.072;7.036;2024-03-08T02:07:17;9.00;;;7.30;;
15425;SDS011;7812;50.072;7.036;2024-03-08T02:09:43;10.87;;;8.70;;
15425;SDS011;7812;50.072;7.036;2024-03-08T02:12:09;11.07;;;8.30;;
15425;SDS011;7812;50.072;7.036;2024-03-08T02:14:35;10.13;;;7.60;;
15425;SDS011;7812;50.072;7.036;2024-03-08T02:17:01;12.60;;;8.70;;
15425;SDS011;7812;50.072;7.036;2024-03-08T02:19:27;12.07;;;8.43;;
15425;SDS011;7812;50.072;7.036;2024-03-08T02:21:53;12.43;;;9.17;;
15425;SDS011;7812;50.072;7.036;2024-03-08T02:24:19;12.07;;;8.63;;
15425;SDS011;7812;50.072;7.036;2024-03-08T02:26:44;10.87;;;8.37;;
15425;SDS011;7812;50.072;7.036;2024-03-08T02:29:11;11.80;;;9.10;;
15425;SDS011;7812;50.072;7.036;2024-03-08T02:31:37;10.07;;;8.57;;
15425;SDS011;7812;50.072;7.036;2024-03-08T02:34:04;11.37;;;8.83;;
15425;SDS011;7812;50.072;7.036;2024-03-08T02:36:30;12.40;;;9.33;;
15425;SDS011;7812;50.072;7.036;2024-03-08T02:39:00;12.07;;;9.07;;
15425;SDS011;7812;50.072;7.036;2024-03-08T02:41:30;13.40;;;9.57;;
15425;SDS011;7812;50.072;7.036;2024-03-08T02:43:55;12.37;;;9.17;;
15425;SDS011;7812;50.072;7.036;2024-03-08T02:46:21;13.33;;;9.70;;
15425;SDS011;7812;50.072;7.036;2024-03-08T02:48:47;12.73;;;8.90;;
15425;SDS011;7812;50.072;7.036;2024-03-08T02:51:13;10.40;;;8.60;;
15425;SDS011;7812;50.072;7.036;2024-03-08T02:53:41;12.20;;;9.10;;
15425;SDS011;7812;50.072;7.036;2024-03-08T02:56:08;11.90;;;8.73;;
15425;SDS011;7812;50.072;7.036;2024-03-08T02:58:38;14.67;;;10.33;;
15425;SDS011;7812;50.072;7.036;2024-03-08T03:01:03;13.27;;;9.00;;
15425;SDS011;7812;50.072;7.036;2024-03-08T03:03:29;13.70;;;9.93;;
15425;SDS011;7812;50.072;7.036;2024-03-08T03:05:55;13.70;;;9.70;;
15425;SDS011;7812;50.072;7.036;2024-03-08T03:08:21;11.53;;;9.47;;
15425;SDS011;7812;50.072;7.036;2024-03-08T03:10:47;11.63;;;9.13;;
15425;SDS011;7812;50.072;7.036;2024-03-08T03:13:12;11.90;;;8.73;;
15425;SDS011;7812;50.072;7.036;2024-03-08T03:15:39;13.37;;;8.90;;
15425;SDS011;7812;50.072;7.036;2024-03-08T03:18:07;12.43;;;9.90;;
15425;SDS011;7812;50.072;7.036;2024-03-08T03:20:33;15.20;;;9.93;;
15425;SDS011;7812;50.072;7.036;2024-03-08T03:23:05;13.23;;;10.00;;
15425;SDS011;7812;50.072;7.036;2024-03-08T03:25:33;13.67;;;9.40;;
15425;SDS011;7812;50.072;7.036;2024-03-08T03:28:03;12.47;;;9.77;;
15425;SDS011;7812;50.072;7.036;2024-03-08T03:30:29;14.30;;;9.10;;
15425;SDS011;7812;50.072;7.036;2024-03-08T03:32:58;15.03;;;10.27;;
15425;SDS011;7812;50.072;7.036;2024-03-08T03:35:25;15.77;;;11.07;;
15425;SDS011;7812;50.072;7.036;2024-03-08T03:37:52;15.50;;;11.53;;
15425;SDS011;7812;50.072;7.036;2024-03-08T03:40:31;13.67;;;10.23;;
15425;SDS011;7812;50.072;7.036;2024-03-08T03:42:57;15.87;;;12.03;;
15425;SDS011;7812;50.072;7.036;2024-03-08T03:45:24;16.47;;;12.57;;
15425;SDS011;7812;50.072;7.036;2024-03-08T03:47:49;14.83;;;11.57;;
15425;SDS011;7812;50.072;7.036;2024-03-08T03:50:16;14.93;;;10.80;;
15425;SDS011;7812;50.072;7.036;2024-03-08T03:52:44;15.90;;;10.63;;
15425;SDS011;7812;50.072;7.036;2024-03-08T03:55:13;14.87;;;10.77;;
15425;SDS011;7812;50.072;7.036;2024-03-08T03:57:39;15.63;;;10.63;;
15425;SDS011;7812;50.072;7.036;2024-03-08T04:00:06;11.40;;;9.50;;
15425;SDS011;7812;50.072;7.036;2024-03-08T04:02:36;13.67;;;10.40;;
15425;SDS011;7812;50.072;7.036;2024-03-08T04:05:06;12.80;;;9.80;;
15425;SDS011;7812;50.072;7.036;2024-03-08T04:07:32;13.87;;;10.90;;
15425;SDS011;7812;50.072;7.036;2024-03-08T04:09:59;15.60;;;10.50;;
15425;SDS011;7812;50.072;7.036;2024-03-08T04:12:26;14.13;;;10.47;;
15425;SDS011;7812;50.072;7.036;2024-03-08T04:14:54;15.13;;;10.70;;
15425;SDS011;7812;50.072;7.036;2024-03-08T04:17:20;12.93;;;10.40;;
15425;SDS011;7812;50.072;7.036;2024-03-08T04:19:46;15.53;;;11.57;;
15425;SDS011;7812;50.072;7.036;2024-03-08T04:22:13;15.37;;;11.40;;
15425;SDS011;7812;50.072;7.036;2024-03-08T04:24:39;14.17;;;10.57;;
15425;SDS011;7812;50.072;7.036;2024-03-08T04:27:06;14.73;;;10.87;;
15425;SDS011;7812;50.072;7.036;2024-03-08T04:29:31;16.20;;;12.30;;
15425;SDS011;7812;50.072;7.036;2024-03-08T04:31:58;15.23;;;11.30;;
15425;SDS011;7812;50.072;7.036;2024-03-08T04:34:23;15.47;;;11.53;;
15425;SDS011;7812;50.072;7.036;2024-03-08T04:36:49;16.43;;;12.83;;
15425;SDS011;7812;50.072;7.036;2024-03-08T04:39:15;16.77;;;12.43;;
15425;SDS011;7812;50.072;7.036;2024-03-08T04:41:41;16.67;;;11.67;;
15425;SDS011;7812;50.072;7.036;2024-03-08T04:44:08;14.30;;;11.70;;
15425;SDS011;7812;50.072;7.036;2024-03-08T04:46:35;15.03;;;11.27;;
15425;SDS011;7812;50.072;7.036;2024-03-08T04:49:01;15.00;;;11.23;;
15425;SDS011;7812;50.072;7.036;2024-03-08T04:51:27;15.40;;;11.10;;
15425;SDS011;7812;50.072;7.036;2024-03-08T04:53:52;13.63;;;10.70;;
15425;SDS011;7812;50.072;7.036;2024-03-08T04:56:18;17.07;;;11.60;;
15425;SDS011;7812;50.072;7.036;2024-03-08T04:58:45;16.37;;;12.00;;
15425;SDS011;7812;50.072;7.036;2024-03-08T05:01:14;16.60;;;11.77;;
15425;SDS011;7812;50.072;7.036;2024-03-08T05:03:40;18.07;;;12.03;;
15425;SDS011;7812;50.072;7.036;2024-03-08T05:06:06;16.10;;;11.77;;
15425;SDS011;7812;50.072;7.036;2024-03-08T05:08:32;16.53;;;12.77;;
15425;SDS011;7812;50.072;7.036;2024-03-08T05:10:58;18.37;;;12.90;;
15425;SDS011;7812;50.072;7.036;2024-03-08T05:13:27;17.53;;;13.37;;
15425;SDS011;7812;50.072;7.036;2024-03-08T05:15:53;15.07;;;11.80;;
15425;SDS011;7812;50.072;7.036;2024-03-08T05:18:19;17.47;;;12.33;;
15425;SDS011;7812;50.072;7.036;2024-03-08T05:20:44;16.27;;;11.87;;
15425;SDS011;7812;50.072;7.036;2024-03-08T05:23:11;15.83;;;11.83;;
15425;SDS011;7812;50.072;7.036;2024-03-08T05:25:36;18.57;;;12.70;;
15425;SDS011;7812;50.072;7.036;2024-03-08T05:28:02;18.50;;;12.23;;
15425;SDS011;7812;50.072;7.036;2024-03-08T05:30:29;18.57;;;13.27;;
15425;SDS011;7812;50.072;7.036;2024-03-08T05:32:54;19.40;;;13.83;;
15425;SDS011;7812;50.072;7.036;2024-03-08T05:35:21;16.70;;;13.30;;
15425;SDS011;7812;50.072;7.036;2024-03-08T05:37:47;17.20;;;12.70;;
15425;SDS011;7812;50.072;7.036;2024-03-08T05:40:13;18.03;;;13.93;;
15425;SDS011;7812;50.072;7.036;2024-03-08T05:42:38;17.10;;;12.43;;
15425;SDS011;7812;50.072;7.036;2024-03-08T05:45:04;17.03;;;12.57;;
15425;SDS011;7812;50.072;7.036;2024-03-08T05:47:34;16.80;;;12.70;;
15425;SDS011;7812;50.072;7.036;2024-03-08T05:50:00;17.30;;;13.00;;
15425;SDS011;7812;50.072;7.036;2024-03-08T05:52:26;17.60;;;13.97;;
15425;SDS011;7812;50.072;7.036;2024-03-08T05:54:52;17.27;;;13.13;;
15425;SDS011;7812;50.072;7.036;2024-03-08T05:57:19;18.73;;;13.97;;
15425;SDS011;7812;50.072;7.036;2024-03-08T05:59:45;24.13;;;14.77;;
15425;SDS011;7812;50.072;7.036;2024-03-08T06:02:10;19.20;;;14.67;;
15425;SDS011;7812;50.072;7.036;2024-03-08T06:04:36;18.90;;;14.00;;
15425;SDS011;7812;50.072;7.036;2024-03-08T06:07:03;20.40;;;13.87;;
15425;SDS011;7812;50.072;7.036;2024-03-08T06:09:29;18.20;;;14.00;;
15425;SDS011;7812;50.072;7.036;2024-03-08T06:11:55;15.90;;;12.47;;
15425;SDS011;7812;50.072;7.036;2024-03-08T06:14:22;17.00;;;12.53;;
15425;SDS011;7812;50.072;7.036;2024-03-08T06:16:48;16.87;;;13.17;;
15425;SDS011;7812;50.072;7.036;2024-03-08T06:19:16;17.77;;;13.77;;
15425;SDS011;7812;50.072;7.036;2024-03-08T06:21:42;15.57;;;12.40;;
15425;SDS011;7812;50.072;7.036;2024-03-08T06:24:08;19.83;;;13.90;;
15425;SDS011;7812;50.072;7.036;2024-03-08T06:26:33;17.17;;;13.40;;
15425;SDS011;7812;50.072;7.036;2024-03-08T06:28:59;18.33;;;12.93;;
15425;SDS011;7812;50.072;7.036;2024-03-08T06:31:25;17.43;;;13.13;;
15425;SDS011;7812;50.072;7.036;2024-03-08T06:33:51;17.17;;;13.03;;
15425;SDS011;7812;50.072;7.036;2024-03-08T06:36:19;19.70;;;15.23;;
15425;SDS011;7812;50.072;7.036;2024-03-08T06:38:46;17.80;;;13.33;;
15425;SDS011;7812;50.072;7.036;2024-03-08T06:41:12;18.17;;;13.10;;
15425;SDS011;7812;50.072;7.036;2024-03-08T06:43:44;17.50;;;12.73;;
15425;SDS011;7812;50.072;7.036;2024-03-08T06:46:17;16.27;;;12.00;;
15425;SDS011;7812;50.072;7.036;2024-03-08T06:48:43;15.50;;;12.67;;
15425;SDS011;7812;50.072;7.036;2024-03-08T06:51:10;14.10;;;10.97;;
15425;SDS011;7812;50.072;7.036;2024-03-08T06:53:36;13.73;;;11.20;;
15425;SDS011;7812;50.072;7.036;2024-03-08T06:56:02;14.50;;;11.70;;
15425;SDS011;7812;50.072;7.036;2024-03-08T06:58:28;15.83;;;10.60;;
15425;SDS011;7812;50.072;7.036;2024-03-08T07:00:54;14.07;;;10.90;;
15425;SDS011;7812;50.072;7.036;2024-03-08T07:03:23;14.43;;;11.17;;
15425;SDS011;7812;50.072;7.036;2024-03-08T07:05:49;16.50;;;11.87;;
15425;SDS011;7812;50.072;7.036;2024-03-08T07:08:15;15.43;;;12.13;;
15425;SDS011;7812;50.072;7.036;2024-03-08T07:10:41;14.30;;;11.80;;
15425;SDS011;7812;50.072;7.036;2024-03-08T07:13:08;13.33;;;10.80;;
15425;SDS011;7812;50.072;7.036;2024-03-08T07:15:34;14.63;;;12.13;;
15425;SDS011;7812;50.072;7.036;2024-03-08T07:18:00;17.00;;;11.53;;
15425;SDS011;7812;50.072;7.036;2024-03-08T07:20:26;14.67;;;11.87;;
15425;SDS011;7812;50.072;7.036;2024-03-08T07:22:53;15.60;;;12.03;;
15425;SDS011;7812;50.072;7.036;2024-03-08T07:25:19;14.13;;;11.50;;
15425;SDS011;7812;50.072;7.036;2024-03-08T07:27:52;13.43;;;11.83;;
15425;SDS011;7812;50.072;7.036;2024-03-08T07:30:23;12.77;;;11.07;;
15425;SDS011;7812;50.072;7.036;2024-03-08T07:33:08;12.40;;;11.10;;
15425;SDS011;7812;50.072;7.036;2024-03-08T07:35:37;15.30;;;12.27;;
15425;SDS011;7812;50.072;7.036;2024-03-08T07:38:06;15.97;;;12.23;;
15425;SDS011;7812;50.072;7.036;2024-03-08T07:40:37;15.53;;;12.93;;
15425;SDS011;7812;50.072;7.036;2024-03-08T07:43:06;17.97;;;12.77;;
15425;SDS011;7812;50.072;7.036;2024-03-08T07:45:32;15.63;;;13.53;;
15425;SDS011;7812;50.072;7.036;2024-03-08T07:47:58;16.17;;;13.97;;
15425;SDS011;7812;50.072;7.036;2024-03-08T07:50:24;17.93;;;14.10;;
15425;SDS011;7812;50.072;7.036;2024-03-08T07:52:49;16.63;;;13.77;;
15425;SDS011;7812;50.072;7.036;2024-03-08T07:55:16;15.97;;;13.13;;
15425;SDS011;7812;50.072;7.036;2024-03-08T07:57:41;17.93;;;13.80;;
15425;SDS011;7812;50.072;7.036;2024-03-08T08:00:07;18.03;;;14.63;;
15425;SDS011;7812;50.072;7.036;2024-03-08T08:02:34;18.97;;;15.63;;
15425;SDS011;7812;50.072;7.036;2024-03-08T08:05:01;19.10;;;14.73;;
15425;SDS011;7812;50.072;7.036;2024-03-08T08:07:27;18.73;;;14.57;;
15425;SDS011;7812;50.072;7.036;2024-03-08T08:09:53;17.93;;;13.97;;
15425;SDS011;7812;50.072;7.036;2024-03-08T08:12:19;17.70;;;14.47;;
15425;SDS011;7812;50.072;7.036;2024-03-08T08:14:45;16.83;;;13.97;;
15425;SDS011;7812;50.072;7.036;2024-03-08T08:17:11;19.23;;;13.93;;
15425;SDS011;7812;50.072;7.036;2024-03-08T08:19:37;17.37;;;13.67;;
15425;SDS011;7812;50.072;7.036;2024-03-08T08:22:04;18.40;;;14.20;;
15425;SDS011;7812;50.072;7.036;2024-03-08T08:24:29;16.10;;;12.77;;
15425;SDS011;7812;50.072;7.036;2024-03-08T08:26:55;17.60;;;14.13;;
15425;SDS011;7812;50.072;7.036;2024-03-08T08:29:21;17.93;;;13.43;;
15425;SDS011;7812;50.072;7.036;2024-03-08T08:31:47;18.63;;;15.23;;
15425;SDS011;7812;50.072;7.036;2024-03-08T08:34:15;16.13;;;13.47;;
15425;SDS011;7812;50.072;7.036;2024-03-08T08:36:44;15.77;;;11.73;;
15425;SDS011;7812;50.072;7.036;2024-03-08T08:39:10;15.67;;;12.30;;
15425;SDS011;7812;50.072;7.036;2024-03-08T08:41:39;16.53;;;13.97;;
15425;SDS011;7812;50.072;7.036;2024-03-08T08:44:06;18.37;;;13.97;;
15425;SDS011;7812;50.072;7.036;2024-03-08T08:46:34;14.13;;;12.63;;
15425;SDS011;7812;50.072;7.036;2024-03-08T08:49:04;16.27;;;13.93;;
15425;SDS011;7812;50.072;7.036;2024-03-08T08:51:31;16.13;;;13.53;;
15425;SDS011;7812;50.072;7.036;2024-03-08T08:53:58;15.53;;;13.43;;
15425;SDS011;7812;50.072;7.036;2024-03-08T08:56:24;16.67;;;13.67;;
15425;SDS011;7812;50.072;7.036;2024-03-08T08:58:51;15.93;;;13.03;;
15425;SDS011;7812;50.072;7.036;2024-03-08T09:01:18;15.17;;;13.10;;
15425;SDS011;7812;50.072;7.036;2024-03-08T09:03:44;16.07;;;12.87;;
15425;SDS011;7812;50.072;7.036;2024-03-08T09:06:12;18.27;;;13.53;;
15425;SDS011;7812;50.072;7.036;2024-03-08T09:08:40;15.83;;;13.70;;
15425;SDS011;7812;50.072;7.036;2024-03-08T09:11:07;16.40;;;13.17;;
15425;SDS011;7812;50.072;7.036;2024-03-08T09:13:33;15.30;;;13.03;;
15425;SDS011;7812;50.072;7.036;2024-03-08T09:15:59;15.40;;;13.73;;
15425;SDS011;7812;50.072;7.036;2024-03-08T09:18:24;15.20;;;12.20;;
15425;SDS011;7812;50.072;7.036;2024-03-08T09:20:51;15.00;;;13.23;;
15425;SDS011;7812;50.072;7.036;2024-03-08T09:23:21;14.50;;;12.60;;
15425;SDS011;7812;50.072;7.036;2024-03-08T09:25:47;15.57;;;12.90;;
15425;SDS011;7812;50.072;7.036;2024-03-08T09:28:13;18.53;;;13.93;;
15425;SDS011;7812;50.072;7.036;2024-03-08T09:30:39;16.20;;;13.03;;
15425;SDS011;7812;50.072;7.036;2024-03-08T09:33:05;16.37;;;13.27;;
15425;SDS011;7812;50.072;7.036;2024-03-08T09:35:31;15.63;;;13.70;;
15425;SDS011;7812;50.072;7.036;2024-03-08T09:37:57;14.77;;;11.80;;
15425;SDS011;7812;50.072;7.036;2024-03-08T09:40:23;15.83;;;13.00;;
15425;SDS011;7812;50.072;7.036;2024-03-08T09:42:50;15.03;;;13.00;;
15425;SDS011;7812;50.072;7.036;2024-03-08T09:45:16;17.17;;;13.73;;
15425;SDS011;7812;50.072;7.036;2024-03-08T09:47:42;15.67;;;12.50;;
15425;SDS011;7812;50.072;7.036;2024-03-08T09:50:09;15.93;;;12.50;;
15425;SDS011;7812;50.072;7.036;2024-03-08T09:52:40;15.40;;;12.67;;
15425;SDS011;7812;50.072;7.036;2024-03-08T09:55:09;14.87;;;12.60;;
15425;SDS011;7812;50.072;7.036;2024-03-08T09:57:36;15.60;;;13.13;;
15425;SDS011;7812;50.072;7.036;2024-03-08T10:00:03;15.37;;;12.83;;
15425;SDS011;7812;50.072;7.036;2024-03-08T10:02:49;15.50;;;11.87;;
15425;SDS011;7812;50.072;7.036;2024-03-08T10:05:17;18.83;;;13.37;;
15425;SDS011;7812;50.072;7.036;2024-03-08T10:07:43;15.43;;;13.07;;
15425;SDS011;7812;50.072;7.036;2024-03-08T10:10:09;15.17;;;12.50;;
15425;SDS011;7812;50.072;7.036;2024-03-08T10:12:37;14.97;;;12.90;;
15425;SDS011;7812;50.072;7.036;2024-03-08T10:15:05;13.87;;;11.90;;
15425;SDS011;7812;50.072;7.036;2024-03-08T10:17:34;15.57;;;12.93;;
15425;SDS011;7812;50.072;7.036;2024-03-08T10:20:00;13.73;;;11.83;;
15425;SDS011;7812;50.072;7.036;2024-03-08T10:22:26;14.47;;;11.97;;
15425;SDS011;7812;50.072;7.036;2024-03-08T10:24:51;12.93;;;11.23;;
15425;SDS011;7812;50.072;7.036;2024-03-08T10:27:17;13.50;;;12.10;;
15425;SDS011;7812;50.072;7.036;2024-03-08T10:29:47;14.17;;;12.67;;
15425;SDS011;7812;50.072;7.036;2024-03-08T10:32:13;14.07;;;12.67;;
15425;SDS011;7812;50.072;7.036;2024-03-08T10:34:39;13.43;;;11.93;;
15425;SDS011;7812;50.072;7.036;2024-03-08T10:37:07;15.20;;;12.70;;
15425;SDS011;7812;50.072;7.036;2024-03-08T10:39:35;13.57;;;12.10;;
15425;SDS011;7812;50.072;7.036;2024-03-08T10:42:02;14.73;;;12.47;;
15425;SDS011;7812;50.072;7.036;2024-03-08T10:49:31;15.20;;;12.77;;
15425;SDS011;7812;50.072;7.036;2024-03-08T10:52:03;15.90;;;12.20;;
15425;SDS011;7812;50.072;7.036;2024-03-08T10:54:33;14.97;;;12.30;;
15425;SDS011;7812;50.072;7.036;2024-03-08T10:57:03;13.77;;;11.97;;
15425;SDS011;7812;50.072;7.036;2024-03-08T10:59:30;13.90;;;12.27;;
15425;SDS011;7812;50.072;7.036;2024-03-08T11:01:58;16.50;;;12.53;;
15425;SDS011;7812;50.072;7.036;2024-03-08T11:04:25;13.67;;;12.17;;
15425;SDS011;7812;50.072;7.036;2024-03-08T11:06:51;13.97;;;12.07;;
15425;SDS011;7812;50.072;7.036;2024-03-08T11:14:50;14.03;;;12.37;;
15425;SDS011;7812;50.072;7.036;2024-03-08T11:17:21;14.23;;;12.73;;
15425;SDS011;7812;50.072;7.036;2024-03-08T11:19:52;13.37;;;11.97;;
15425;SDS011;7812;50.072;7.036;2024-03-08T11:22:25;13.20;;;11.37;;
15425;SDS011;7812;50.072;7.036;2024-03-08T11:24:58;14.53;;;12.97;;
15425;SDS011;7812;50.072;7.036;2024-03-08T11:27:30;14.83;;;12.10;;
15425;SDS011;7812;50.072;7.036;2024-03-08T11:29:59;14.87;;;11.47;;
15425;SDS011;7812;50.072;7.036;2024-03-08T11:32:37;13.90;;;12.33;;
15425;SDS011;7812;50.072;7.036;2024-03-08T11:35:07;14.20;;;12.70;;
15425;SDS011;7812;50.072;7.036;2024-03-08T11:37:43;14.57;;;12.60;;
15425;SDS011;7812;50.072;7.036;2024-03-08T11:40:13;15.33;;;12.00;;
15425;SDS011;7812;50.072;7.036;2024-03-08T11:42:43;13.57;;;11.97;;
15425;SDS011;7812;50.072;7.036;2024-03-08T11:45:11;14.33;;;12.83;;
15425;SDS011;7812;50.072;7.036;2024-03-08T11:47:38;14.87;;;12.23;;
15425;SDS011;7812;50.072;7.036;2024-03-08T11:50:07;15.83;;;12.77;;
15425;SDS011;7812;50.072;7.036;2024-03-08T11:52:36;12.70;;;11.43;;
15425;SDS011;7812;50.072;7.036;2024-03-08T11:55:04;13.57;;;12.17;;
15425;SDS011;7812;50.072;7.036;2024-03-08T11:57:30;13.47;;;12.07;;
15425;SDS011;7812;50.072;7.036;2024-03-08T11:59:57;15.83;;;12.87;;
15425;SDS011;7812;50.072;7.036;2024-03-08T12:02:31;15.20;;;13.53;;
15425;SDS011;7812;50.072;7.036;2024-03-08T12:05:00;13.70;;;12.13;;
15425;SDS011;7812;50.072;7.036;2024-03-08T12:07:28;14.10;;;12.60;;
15425;SDS011;7812;50.072;7.036;2024-03-08T12:10:36;14.13;;;12.73;;
15425;SDS011;7812;50.072;7.036;2024-03-08T12:12:44;14.73;;;12.77;;
15425;SDS011;7812;50.072;7.036;2024-03-08T12:15:11;13.80;;;12.33;;
15425;SDS011;7812;50.072;7.036;2024-03-08T12:17:37;14.33;;;12.83;;
15425;SDS011;7812;50.072;7.036;2024-03-08T12:20:11;15.43;;;13.70;;
15425;SDS011;7812;50.072;7.036;2024-03-08T12:22:41;15.00;;;13.23;;
15425;SDS011;7812;50.072;7.036;2024-03-08T12:25:13;15.43;;;12.67;;
15425;SDS011;7812;50.072;7.036;2024-03-08T12:27:39;14.00;;;12.33;;
15425;SDS011;7812;50.072;7.036;2024-03-08T12:30:18;13.97;;;12.27;;
15425;SDS011;7812;50.072;7.036;2024-03-08T12:32:48;13.70;;;12.13;;
15425;SDS011;7812;50.072;7.036;2024-03-08T12:35:21;13.90;;;12.50;;
15425;SDS011;7812;50.072;7.036;2024-03-08T12:37:48;14.03;;;12.53;;
15425;SDS011;7812;50.072;7.036;2024-03-08T12:40:16;15.23;;;13.63;;
15425;SDS011;7812;50.072;7.036;2024-03-08T12:42:45;14.90;;;13.20;;
15425;SDS011;7812;50.072;7.036;2024-03-08T12:45:14;14.27;;;12.70;;
15425;SDS011;7812;50.072;7.036;2024-03-08T12:47:39;15.23;;;12.97;;
15425;SDS011;7812;50.072;7.036;2024-03-08T12:50:07;15.70;;;12.70;;
15425;SDS011;7812;50.072;7.036;2024-03-08T12:52:34;14.70;;;13.10;;
15425;SDS011;7812;50.072;7.036;2024-03-08T12:55:00;16.47;;;12.13;;
15425;SDS011;7812;50.072;7.036;2024-03-08T12:57:28;13.47;;;12.07;;
15425;SDS011;7812;50.072;7.036;2024-03-08T12:59:54;14.33;;;11.90;;
15425;SDS011;7812;50.072;7.036;2024-03-08T13:02:20;14.03;;;11.67;;
15425;SDS011;7812;50.072;7.036;2024-03-08T13:04:46;14.63;;;12.57;;
15425;SDS011;7812;50.072;7.036;2024-03-08T13:07:20;13.77;;;11.97;;
15425;SDS011;7812;50.072;7.036;2024-03-08T13:09:46;14.30;;;12.80;;
15425;SDS011;7812;50.072;7.036;2024-03-08T13:12:12;15.30;;;12.33;;
15425;SDS011;7812;50.072;7.036;2024-03-08T13:14:40;13.07;;;11.67;;
15425;SDS011;7812;50.072;7.036;2024-03-08T13:17:06;13.57;;;11.73;;
15425;SDS011;7812;50.072;7.036;2024-03-08T13:19:36;15.27;;;12.27;;
15425;SDS011;7812;50.072;7.036;2024-03-08T13:22:03;13.53;;;12.07;;
15425;SDS011;7812;50.072;7.036;2024-03-08T13:24:29;14.23;;;11.47;;
15425;SDS011;7812;50.072;7.036;2024-03-08T13:26:55;13.17;;;11.77;;
15425;SDS011;7812;50.072;7.036;2024-03-08T13:29:22;14.07;;;12.10;;
15425;SDS011;7812;50.072;7.036;2024-03-08T13:31:48;14.07;;;11.37;;
15425;SDS011;7812;50.072;7.036;2024-03-08T13:34:16;13.53;;;11.40;;
15425;SDS011;7812;50.072;7.036;2024-03-08T13:36:43;13.83;;;12.37;;
15425;SDS011;7812;50.072;7.036;2024-03-08T13:39:10;14.97;;;12.67;;
15425;SDS011;7812;50.072;7.036;2024-03-08T13:41:40;13.50;;;12.10;;
15425;SDS011;7812;50.072;7.036;2024-03-08T13:44:06;14.30;;;12.60;;
15425;SDS011;7812;50.072;7.036;2024-03-08T13:46:32;12.77;;;11.17;;
15425;SDS011;7812;50.072;7.036;2024-03-08T13:49:04;14.20;;;12.03;;
15425;SDS011;7812;50.072;7.036;2024-03-08T13:51:32;14.47;;;11.53;;
15425;SDS011;7812;50.072;7.036;2024-03-08T13:53:58;15.60;;;11.80;;
15425;SDS011;7812;50.072;7.036;2024-03-08T13:56:25;12.60;;;11.13;;
15425;SDS011;7812;50.072;7.036;2024-03-08T13:58:57;14.07;;;10.67;;
15425;SDS011;7812;50.072;7.036;2024-03-08T14:01:23;14.27;;;11.87;;
15425;SDS011;7812;50.072;7.036;2024-03-08T14:03:49;13.23;;;11.57;;
15425;SDS011;7812;50.072;7.036;2024-03-08T14:06:14;14.33;;;12.23;;
15425;SDS011;7812;50.072;7.036;2024-03-08T14:08:40;14.43;;;12.00;;
15425;SDS011;7812;50.072;7.036;2024-03-08T14:11:06;13.73;;;11.73;;
15425;SDS011;7812;50.072;7.036;2024-03-08T14:13:43;13.87;;;12.43;;
15425;SDS011;7812;50.072;7.036;2024-03-08T14:16:12;14.63;;;12.10;;
15425;SDS011;7812;50.072;7.036;2024-03-08T14:18:38;15.17;;;11.90;;
15425;SDS011;7812;50.072;7.036;2024-03-08T14:21:04;14.83;;;12.37;;
15425;SDS011;7812;50.072;7.036;2024-03-08T14:23:31;16.93;;;12.17;;
15425;SDS011;7812;50.072;7.036;2024-03-08T14:25:57;14.27;;;12.03;;
15425;SDS011;7812;50.072;7.036;2024-03-08T14:28:24;14.07;;;12.17;;
15425;SDS011;7812;50.072;7.036;2024-03-08T14:30:52;15.63;;;11.90;;
15425;SDS011;7812;50.072;7.036;2024-03-08T14:33:18;16.20;;;11.83;;
15425;SDS011;7812;50.072;7.036;2024-03-08T14:35:44;14.33;;;11.50;;
15425;SDS011;7812;50.072;7.036;2024-03-08T14:38:12;15.47;;;13.10;;
15425;SDS011;7812;50.072;7.036;2024-03-08T14:40:38;16.23;;;13.07;;
15425;SDS011;7812;50.072;7.036;2024-03-08T14:43:04;14.93;;;12.27;;
15425;SDS011;7812;50.072;7.036;2024-03-08T14:45:30;15.60;;;13.10;;
15425;SDS011;7812;50.072;7.036;2024-03-08T14:47:56;16.63;;;13.30;;